Time,TemperatureF,DewpointF,PressureIn,WindDirection,WindDirectionDegrees,WindSpeedMPH,WindSpeedGustMPH,Humidity,HourlyPrecipIn,Conditions,Clouds,dailyrainin,SoftwareType,DateUTC
2013-03-06 16:34:00,39.9,31.3,30.20,NNE,32,2.0,3.0,71,0.00,,,0.00,Weather View 32 v70,2013-03-06 21:34:00,
2013-03-06 16:39:00,39.9,31.3,30.20,ENE,75,3.0,7.0,71,0.00,,,0.00,Weather View 32 v70,2013-03-06 21:39:00,
2013-03-06 16:44:00,39.9,31.3,30.20,North,7,4.0,9.0,71,0.00,,,0.00,Weather View 32 v70,2013-03-06 21:44:00,
2013-03-06 16:49:00,39.9,31.3,30.20,ENE,63,3.0,10.0,71,0.00,,,0.00,Weather View 32 v70,2013-03-06 21:49:00,
2013-03-06 16:54:00,39.9,31.3,30.20,North,11,4.0,10.0,71,0.00,,,0.00,Weather View 32 v70,2013-03-06 21:54:00,
2013-03-06 16:59:00,39.7,31.1,30.20,West,273,2.0,10.0,71,0.00,,,0.00,Weather View 32 v70,2013-03-06 21:59:00,
2013-03-06 17:04:00,39.5,30.9,30.20,NE,44,3.0,10.0,71,0.00,,,0.00,Weather View 32 v70,2013-03-06 22:04:00,
2013-03-06 17:09:00,39.9,31.3,30.21,NE,47,5.0,10.0,71,0.00,,,0.00,Weather View 32 v70,2013-03-06 22:09:00,
2013-03-06 17:14:00,39.5,30.5,30.21,NNE,16,3.0,10.0,70,0.00,,,0.00,Weather View 32 v70,2013-03-06 22:14:00,
2013-03-06 17:19:00,39.9,31.3,30.21,NE,49,2.0,10.0,71,0.00,,,0.00,Weather View 32 v70,2013-03-06 22:19:00,
2013-03-06 17:25:00,39.5,30.9,30.21,ENE,67,3.0,10.0,71,0.00,,,0.00,Weather View 32 v70,2013-03-06 22:25:00,
2013-03-06 17:30:00,39.7,31.1,30.21,NNE,33,3.0,10.0,71,0.00,,,0.00,Weather View 32 v70,2013-03-06 22:30:00,
2013-03-06 17:35:00,39.5,30.9,30.21,ENE,76,2.0,10.0,71,0.00,,,0.00,Weather View 32 v70,2013-03-06 22:35:00,
2013-03-06 17:40:00,39.3,30.7,30.22,North,8,3.0,10.0,71,0.00,,,0.00,Weather View 32 v70,2013-03-06 22:40:00,
2013-03-06 17:45:00,39.3,30.7,30.22,NNE,26,2.0,10.0,71,0.00,,,0.00,Weather View 32 v70,2013-03-06 22:45:00,
2013-03-06 17:50:00,39.3,30.7,30.22,NNE,17,4.0,8.0,71,0.00,,,0.00,Weather View 32 v70,2013-03-06 22:50:00,
2013-03-06 17:55:00,39.2,30.6,30.23,NNE,15,5.0,8.0,71,0.00,,,0.00,Weather View 32 v70,2013-03-06 22:55:00,
2013-03-06 17:59:00,39.5,30.9,30.23,ENE,69,5.0,8.0,71,0.00,,,0.00,Weather View 32 v70,2013-03-06 22:59:00,
2013-03-06 18:05:00,39.3,30.7,30.23,NE,42,3.0,9.0,71,0.00,,,0.00,Weather View 32 v70,2013-03-06 23:05:00,
2013-03-06 18:10:00,39.5,30.9,30.23,East,82,2.0,9.0,71,0.00,,,0.00,Weather View 32 v70,2013-03-06 23:10:00,
2013-03-06 18:15:00,39.3,30.7,30.23,North,360,4.0,9.0,71,0.00,,,0.00,Weather View 32 v70,2013-03-06 23:15:00,
2013-03-06 18:20:00,39.2,30.6,30.24,North,359,2.0,9.0,71,0.00,,,0.00,Weather View 32 v70,2013-03-06 23:20:00,
2013-03-06 18:25:00,39.2,30.6,30.24,NE,34,4.0,10.0,71,0.00,,,0.00,Weather View 32 v70,2013-03-06 23:25:00,
2013-03-06 18:30:00,39.2,30.6,30.24,NE,45,5.0,11.0,71,0.00,,,0.00,Weather View 32 v70,2013-03-06 23:30:00,
2013-03-06 18:35:00,39.2,30.6,30.25,North,358,4.0,11.0,71,0.00,,,0.00,Weather View 32 v70,2013-03-06 23:35:00,
2013-03-06 18:40:00,39.3,30.7,30.25,ENE,57,4.0,11.0,71,0.00,,,0.00,Weather View 32 v70,2013-03-06 23:40:00,
2013-03-06 18:45:00,39.0,30.4,30.25,NE,50,2.0,11.0,71,0.00,,,0.00,Weather View 32 v70,2013-03-06 23:45:00,
2013-03-06 18:50:00,39.0,30.4,30.26,East,95,3.0,11.0,71,0.00,,,0.00,Weather View 32 v70,2013-03-06 23:50:00,
2013-03-06 18:55:00,39.3,30.7,30.25,NE,34,4.0,11.0,71,0.00,,,0.00,Weather View 32 v70,2013-03-06 23:55:00,
2013-03-06 19:00:00,38.8,30.2,30.25,NNE,22,3.0,11.0,71,0.00,,,0.00,Weather View 32 v70,2013-03-07 00:00:00,
2013-03-06 19:05:00,39.0,30.4,30.25,NE,51,2.0,11.0,71,0.00,,,0.00,Weather View 32 v70,2013-03-07 00:05:00,
2013-03-06 19:10:00,38.6,30.0,30.25,ENE,63,3.0,11.0,71,0.00,,,0.00,Weather View 32 v70,2013-03-07 00:10:00,
2013-03-06 19:15:00,38.8,30.2,30.25,NE,45,3.0,11.0,71,0.00,,,0.00,Weather View 32 v70,2013-03-07 00:15:00,
2013-03-06 19:20:00,38.6,30.0,30.25,NNE,33,3.0,11.0,71,0.00,,,0.00,Weather View 32 v70,2013-03-07 00:20:00,
2013-03-06 19:25:00,38.6,30.0,30.25,ENE,57,2.0,11.0,71,0.00,,,0.00,Weather View 32 v70,2013-03-07 00:25:00,
2013-03-06 19:30:00,38.6,30.0,30.25,ENE,70,4.0,11.0,71,0.00,,,0.00,Weather View 32 v70,2013-03-07 00:30:00,
2013-03-06 19:35:00,38.1,29.5,30.26,ESE,104,4.0,11.0,71,0.00,,,0.00,Weather View 32 v70,2013-03-07 00:35:00,
2013-03-06 19:40:00,38.6,30.0,30.26,NE,45,2.0,11.0,71,0.00,,,0.00,Weather View 32 v70,2013-03-07 00:40:00,
2013-03-06 19:45:00,38.3,29.7,30.25,ENE,71,6.0,9.0,71,0.00,,,0.00,Weather View 32 v70,2013-03-07 00:45:00,
2013-03-06 19:50:00,38.6,30.0,30.26,NE,52,2.0,9.0,71,0.00,,,0.00,Weather View 32 v70,2013-03-07 00:50:00,
2013-03-06 19:55:00,38.4,29.8,30.25,NE,40,3.0,9.0,71,0.00,,,0.00,Weather View 32 v70,2013-03-07 00:55:00,
2013-03-06 20:00:00,38.3,29.7,30.26,NNE,31,4.0,9.0,71,0.00,,,0.00,Weather View 32 v70,2013-03-07 01:00:00,
2013-03-06 20:05:00,38.3,29.7,30.25,NE,55,2.0,9.0,71,0.00,,,0.00,Weather View 32 v70,2013-03-07 01:05:00,
2013-03-06 20:10:00,38.3,29.7,30.25,NE,53,2.0,9.0,71,0.00,,,0.00,Weather View 32 v70,2013-03-07 01:10:00,
2013-03-06 20:15:00,38.1,29.2,30.25,NE,54,3.0,8.0,70,0.00,,,0.00,Weather View 32 v70,2013-03-07 01:15:00,
2013-03-06 20:20:00,38.1,29.5,30.25,ESE,116,2.0,8.0,71,0.00,,,0.00,Weather View 32 v70,2013-03-07 01:20:00,
2013-03-06 20:25:00,38.3,29.7,30.25,NNE,21,2.0,8.0,71,0.00,,,0.00,Weather View 32 v70,2013-03-07 01:25:00,
2013-03-06 20:30:00,38.1,29.5,30.25,ENE,62,3.0,8.0,71,0.00,,,0.00,Weather View 32 v70,2013-03-07 01:30:00,
2013-03-06 20:35:00,38.3,29.7,30.24,NE,39,2.0,8.0,71,0.00,,,0.00,Weather View 32 v70,2013-03-07 01:35:00,
2013-03-06 20:40:00,37.7,29.1,30.24,North,3,2.0,8.0,71,0.00,,,0.00,Weather View 32 v70,2013-03-07 01:40:00,
2013-03-06 20:45:00,37.5,28.9,30.24,NNW,328,2.0,8.0,71,0.00,,,0.00,Weather View 32 v70,2013-03-07 01:45:00,
2013-03-06 20:50:00,37.2,28.7,30.24,NW,326,2.0,6.0,71,0.00,,,0.00,Weather View 32 v70,2013-03-07 01:50:00,
2013-03-06 20:55:00,37.5,28.9,30.24,North,7,4.0,6.0,71,0.00,,,0.00,Weather View 32 v70,2013-03-07 01:55:00,
2013-03-06 21:00:00,37.7,29.1,30.25,NNE,20,3.0,7.0,71,0.00,,,0.00,Weather View 32 v70,2013-03-07 02:00:00,
2013-03-06 21:05:00,37.9,29.3,30.25,NE,34,3.0,7.0,71,0.00,,,0.00,Weather View 32 v70,2013-03-07 02:05:00,
2013-03-06 21:10:00,37.5,28.9,30.25,North,1,1.0,7.0,71,0.00,,,0.00,Weather View 32 v70,2013-03-07 02:10:00,
2013-03-06 21:15:00,37.5,28.9,30.24,North,360,4.0,7.0,71,0.00,,,0.00,Weather View 32 v70,2013-03-07 02:15:00,
2013-03-06 21:20:00,37.5,28.9,30.25,NE,50,3.0,7.0,71,0.00,,,0.00,Weather View 32 v70,2013-03-07 02:20:00,
2013-03-06 21:25:00,37.4,28.8,30.25,NE,35,3.0,7.0,71,0.00,,,0.00,Weather View 32 v70,2013-03-07 02:25:00,
2013-03-06 21:30:00,37.5,28.9,30.26,ENE,59,3.0,7.0,71,0.00,,,0.00,Weather View 32 v70,2013-03-07 02:30:00,
2013-03-06 21:35:00,37.5,28.9,30.25,WSW,255,1.0,7.0,71,0.00,,,0.00,Weather View 32 v70,2013-03-07 02:35:00,
2013-03-06 21:40:00,37.5,28.9,30.25,NE,48,2.0,7.0,71,0.00,,,0.00,Weather View 32 v70,2013-03-07 02:40:00,
2013-03-06 21:45:00,37.7,29.1,30.25,North,10,1.0,7.0,71,0.00,,,0.00,Weather View 32 v70,2013-03-07 02:45:00,
2013-03-06 21:50:00,37.5,28.9,30.25,NNE,20,3.0,7.0,71,0.00,,,0.00,Weather View 32 v70,2013-03-07 02:50:00,
2013-03-06 21:55:00,37.4,28.8,30.25,NE,49,2.0,7.0,71,0.00,,,0.00,Weather View 32 v70,2013-03-07 02:55:00,
2013-03-06 22:00:00,37.2,28.7,30.26,NNE,12,2.0,7.0,71,0.00,,,0.00,Weather View 32 v70,2013-03-07 03:00:00,
2013-03-06 22:05:00,37.4,28.8,30.25,NNW,337,3.0,8.0,71,0.00,,,0.00,Weather View 32 v70,2013-03-07 03:05:00,
2013-03-06 22:10:00,37.2,28.7,30.25,North,4,2.0,8.0,71,0.00,,,0.00,Weather View 32 v70,2013-03-07 03:10:00,
2013-03-06 22:15:00,37.4,28.8,30.25,NE,44,4.0,8.0,71,0.00,,,0.00,Weather View 32 v70,2013-03-07 03:15:00,
2013-03-06 22:20:00,37.4,28.8,30.25,East,88,3.0,8.0,71,0.00,,,0.00,Weather View 32 v70,2013-03-07 03:20:00,
2013-03-06 22:25:00,37.4,28.8,30.25,NNE,16,4.0,9.0,71,0.00,,,0.00,Weather View 32 v70,2013-03-07 03:25:00,
2013-03-06 22:30:00,37.2,28.7,30.25,NW,306,2.0,9.0,71,0.00,,,0.00,Weather View 32 v70,2013-03-07 03:30:00,
2013-03-06 22:36:00,37.4,28.8,30.24,North,6,3.0,9.0,71,0.00,,,0.00,Weather View 32 v70,2013-03-07 03:36:00,
2013-03-06 22:41:00,37.4,28.8,30.25,NNE,23,3.0,9.0,71,0.00,,,0.00,Weather View 32 v70,2013-03-07 03:41:00,
2013-03-06 22:46:00,37.2,28.7,30.25,NNW,346,2.0,9.0,71,0.00,,,0.00,Weather View 32 v70,2013-03-07 03:46:00,
2013-03-06 22:51:00,37.2,28.7,30.25,NW,316,3.0,9.0,71,0.00,,,0.00,Weather View 32 v70,2013-03-07 03:51:00,
2013-03-06 22:56:00,37.4,28.8,30.24,North,356,1.0,9.0,71,0.00,,,0.00,Weather View 32 v70,2013-03-07 03:56:00,
2013-03-06 23:01:00,37.2,28.7,30.25,NNE,33,1.0,9.0,71,0.00,,,0.00,Weather View 32 v70,2013-03-07 04:01:00,
2013-03-06 23:06:00,37.0,28.5,30.25,NNW,343,3.0,9.0,71,0.00,,,0.00,Weather View 32 v70,2013-03-07 04:06:00,
2013-03-06 23:11:00,37.0,28.5,30.25,North,354,1.0,9.0,71,0.00,,,0.00,Weather View 32 v70,2013-03-07 04:11:00,
2013-03-06 23:16:00,37.2,28.7,30.25,NNW,341,2.0,9.0,71,0.00,,,0.00,Weather View 32 v70,2013-03-07 04:16:00,
2013-03-06 23:21:00,36.8,28.3,30.25,ENE,73,1.0,9.0,71,0.00,,,0.00,Weather View 32 v70,2013-03-07 04:21:00,
2013-03-06 23:26:00,37.2,28.7,30.24,North,356,1.0,6.0,71,0.00,,,0.00,Weather View 32 v70,2013-03-07 04:26:00,
2013-03-06 23:31:00,37.2,28.7,30.24,NNE,16,2.0,6.0,71,0.00,,,0.00,Weather View 32 v70,2013-03-07 04:31:00,
2013-03-06 23:36:00,36.8,28.3,30.25,NNE,30,3.0,6.0,71,0.00,,,0.00,Weather View 32 v70,2013-03-07 04:36:00,
2013-03-06 23:41:00,37.0,28.5,30.24,North,351,3.0,6.0,71,0.00,,,0.00,Weather View 32 v70,2013-03-07 04:41:00,
2013-03-06 23:46:00,37.0,28.5,30.24,North,360,2.0,6.0,71,0.00,,,0.00,Weather View 32 v70,2013-03-07 04:46:00,
2013-03-06 23:51:00,37.0,28.5,30.23,NE,43,1.0,6.0,71,0.00,,,0.00,Weather View 32 v70,2013-03-07 04:51:00,
2013-03-06 23:56:00,37.0,28.5,30.24,NW,305,2.0,6.0,71,0.00,,,0.00,Weather View 32 v70,2013-03-07 04:56:00,